sensor_id;sensor_type;location;lat;lon;timestamp;temperature;humidity
27559;DHT22;15002;52.028;5.670;2023-03-31T00:02:04;13.90;99.90
27559;DHT22;15002;52.028;5.670;2023-03-31T00:04:42;14.00;99.90
27559;DHT22;15002;52.028;5.670;2023-03-31T00:07:17;14.00;99.90
27559;DHT22;15002;52.028;5.670;2023-03-31T00:09:47;14.00;99.90
27559;DHT22;15002;52.028;5.670;2023-03-31T00:12:15;14.00;99.90
27559;DHT22;15002;52.028;5.670;2023-03-31T00:14:42;14.10;99.90
27559;DHT22;15002;52.028;5.670;2023-03-31T00:17:08;14.10;99.90
27559;DHT22;15002;52.028;5.670;2023-03-31T00:19:35;14.10;99.90
27559;DHT22;15002;52.028;5.670;2023-03-31T00:22:01;14.10;99.90
27559;DHT22;15002;52.028;5.670;2023-03-31T00:24:28;14.20;99.90
27559;DHT22;15002;52.028;5.670;2023-03-31T00:27:00;14.20;99.90
27559;DHT22;15002;52.028;5.670;2023-03-31T00:29:26;14.00;99.90
27559;DHT22;15002;52.028;5.670;2023-03-31T00:31:52;14.10;99.90
27559;DHT22;15002;52.028;5.670;2023-03-31T00:34:18;14.10;99.90
27559;DHT22;15002;52.028;5.670;2023-03-31T00:36:44;14.20;99.90
27559;DHT22;15002;52.028;5.670;2023-03-31T00:39:14;14.10;99.90
27559;DHT22;15002;52.028;5.670;2023-03-31T00:41:40;14.10;99.90
27559;DHT22;15002;52.028;5.670;2023-03-31T00:44:19;14.10;99.90
27559;DHT22;15002;52.028;5.670;2023-03-31T00:46:55;14.20;99.90
27559;DHT22;15002;52.028;5.670;2023-03-31T00:49:24;14.30;99.90
27559;DHT22;15002;52.028;5.670;2023-03-31T00:51:54;14.30;99.90
27559;DHT22;15002;52.028;5.670;2023-03-31T00:54:23;14.30;99.90
27559;DHT22;15002;52.028;5.670;2023-03-31T00:56:52;14.30;99.90
27559;DHT22;15002;52.028;5.670;2023-03-31T00:59:22;14.30;99.90
27559;DHT22;15002;52.028;5.670;2023-03-31T01:01:48;14.40;99.90
27559;DHT22;15002;52.028;5.670;2023-03-31T01:04:15;14.60;99.90
27559;DHT22;15002;52.028;5.670;2023-03-31T01:07:13;14.50;99.90
27559;DHT22;15002;52.028;5.670;2023-03-31T01:09:37;14.40;99.90
27559;DHT22;15002;52.028;5.670;2023-03-31T01:12:06;14.30;99.90
27559;DHT22;15002;52.028;5.670;2023-03-31T01:14:33;14.30;99.90
27559;DHT22;15002;52.028;5.670;2023-03-31T01:16:59;14.30;99.90
27559;DHT22;15002;52.028;5.670;2023-03-31T01:26:09;14.30;99.90
27559;DHT22;15002;52.028;5.670;2023-03-31T01:29:43;14.30;99.90
27559;DHT22;15002;52.028;5.670;2023-03-31T01:40:11;14.30;99.90
27559;DHT22;15002;52.028;5.670;2023-03-31T01:42:56;14.30;99.90
27559;DHT22;15002;52.028;5.670;2023-03-31T01:50:55;14.10;99.90
27559;DHT22;15002;52.028;5.670;2023-03-31T01:58:54;14.20;99.90
27559;DHT22;15002;52.028;5.670;2023-03-31T02:01:48;14.30;99.90
27559;DHT22;15002;52.028;5.670;2023-03-31T02:04:32;14.40;99.90
27559;DHT22;15002;52.028;5.670;2023-03-31T02:07:03;14.30;99.90
27559;DHT22;15002;52.028;5.670;2023-03-31T02:09:38;14.30;99.90
27559;DHT22;15002;52.028;5.670;2023-03-31T02:12:08;14.40;99.90
27559;DHT22;15002;52.028;5.670;2023-03-31T02:14:40;14.30;99.90
27559;DHT22;15002;52.028;5.670;2023-03-31T02:17:12;14.30;99.90
27559;DHT22;15002;52.028;5.670;2023-03-31T02:19:44;14.40;99.90
27559;DHT22;15002;52.028;5.670;2023-03-31T02:22:12;14.40;99.90
27559;DHT22;15002;52.028;5.670;2023-03-31T02:24:39;14.50;99.90
27559;DHT22;15002;52.028;5.670;2023-03-31T02:27:11;14.50;99.90
27559;DHT22;15002;52.028;5.670;2023-03-31T02:29:40;14.40;99.90
27559;DHT22;15002;52.028;5.670;2023-03-31T02:32:36;14.50;99.90
27559;DHT22;15002;52.028;5.670;2023-03-31T02:35:04;14.60;99.90
27559;DHT22;15002;52.028;5.670;2023-03-31T02:37:31;14.40;99.90
27559;DHT22;15002;52.028;5.670;2023-03-31T02:40:00;14.40;99.90
27559;DHT22;15002;52.028;5.670;2023-03-31T02:42:27;14.40;99.90
27559;DHT22;15002;52.028;5.670;2023-03-31T02:44:53;14.30;99.90
27559;DHT22;15002;52.028;5.670;2023-03-31T02:47:20;14.50;99.90
27559;DHT22;15002;52.028;5.670;2023-03-31T02:49:55;14.40;99.90
27559;DHT22;15002;52.028;5.670;2023-03-31T02:52:43;14.40;99.90
27559;DHT22;15002;52.028;5.670;2023-03-31T03:04:40;14.30;99.90
27559;DHT22;15002;52.028;5.670;2023-03-31T03:07:02;14.20;99.90
27559;DHT22;15002;52.028;5.670;2023-03-31T03:12:25;14.20;99.90
27559;DHT22;15002;52.028;5.670;2023-03-31T03:17:19;14.10;99.90
27559;DHT22;15002;52.028;5.670;2023-03-31T03:19:54;14.00;99.90
27559;DHT22;15002;52.028;5.670;2023-03-31T03:22:21;14.20;99.90
27559;DHT22;15002;52.028;5.670;2023-03-31T03:24:47;14.10;99.90
27559;DHT22;15002;52.028;5.670;2023-03-31T03:27:13;14.10;99.90
27559;DHT22;15002;52.028;5.670;2023-03-31T03:29:38;14.10;99.90
27559;DHT22;15002;52.028;5.670;2023-03-31T03:32:06;14.10;99.90
27559;DHT22;15002;52.028;5.670;2023-03-31T03:34:31;14.10;99.90
27559;DHT22;15002;52.028;5.670;2023-03-31T03:36:57;14.00;99.90
27559;DHT22;15002;52.028;5.670;2023-03-31T03:39:22;14.00;99.90
27559;DHT22;15002;52.028;5.670;2023-03-31T03:41:48;14.00;99.90
27559;DHT22;15002;52.028;5.670;2023-03-31T03:44:14;14.00;99.90
27559;DHT22;15002;52.028;5.670;2023-03-31T03:46:39;14.00;99.90
27559;DHT22;15002;52.028;5.670;2023-03-31T03:49:05;13.90;99.90
27559;DHT22;15002;52.028;5.670;2023-03-31T03:51:31;14.00;99.90
27559;DHT22;15002;52.028;5.670;2023-03-31T03:53:56;13.90;99.90
27559;DHT22;15002;52.028;5.670;2023-03-31T03:56:22;13.90;99.90
27559;DHT22;15002;52.028;5.670;2023-03-31T03:58:48;14.10;99.90
27559;DHT22;15002;52.028;5.670;2023-03-31T04:01:13;14.00;99.90
27559;DHT22;15002;52.028;5.670;2023-03-31T04:03:40;14.00;99.90
27559;DHT22;15002;52.028;5.670;2023-03-31T04:06:06;14.00;99.90
27559;DHT22;15002;52.028;5.670;2023-03-31T04:08:31;14.00;99.90
27559;DHT22;15002;52.028;5.670;2023-03-31T04:10:57;14.00;99.90
27559;DHT22;15002;52.028;5.670;2023-03-31T04:13:23;13.90;99.90
27559;DHT22;15002;52.028;5.670;2023-03-31T04:15:48;13.90;99.90
27559;DHT22;15002;52.028;5.670;2023-03-31T04:18:14;13.90;99.90
27559;DHT22;15002;52.028;5.670;2023-03-31T04:20:51;13.90;99.90
27559;DHT22;15002;52.028;5.670;2023-03-31T04:23:32;13.80;99.90
27559;DHT22;15002;52.028;5.670;2023-03-31T04:25:58;13.70;99.90
27559;DHT22;15002;52.028;5.670;2023-03-31T04:28:24;13.90;99.90
27559;DHT22;15002;52.028;5.670;2023-03-31T04:30:52;13.90;99.90
27559;DHT22;15002;52.028;5.670;2023-03-31T04:33:23;13.80;99.90
27559;DHT22;15002;52.028;5.670;2023-03-31T04:35:48;13.80;99.90
27559;DHT22;15002;52.028;5.670;2023-03-31T04:38:19;13.80;99.90
27559;DHT22;15002;52.028;5.670;2023-03-31T04:40:49;13.90;99.90
27559;DHT22;15002;52.028;5.670;2023-03-31T04:43:16;13.70;99.90
27559;DHT22;15002;52.028;5.670;2023-03-31T04:45:43;13.90;99.90
27559;DHT22;15002;52.028;5.670;2023-03-31T04:48:09;13.90;99.90
27559;DHT22;15002;52.028;5.670;2023-03-31T04:50:35;13.80;99.90
27559;DHT22;15002;52.028;5.670;2023-03-31T04:53:01;13.60;99.90
27559;DHT22;15002;52.028;5.670;2023-03-31T04:55:27;13.60;99.90
27559;DHT22;15002;52.028;5.670;2023-03-31T04:57:53;13.70;99.90
27559;DHT22;15002;52.028;5.670;2023-03-31T05:00:19;13.60;99.90
27559;DHT22;15002;52.028;5.670;2023-03-31T05:02:45;13.70;99.90
27559;DHT22;15002;52.028;5.670;2023-03-31T05:05:11;13.80;99.90
27559;DHT22;15002;52.028;5.670;2023-03-31T05:07:38;13.80;99.90
27559;DHT22;15002;52.028;5.670;2023-03-31T05:10:04;13.90;99.90
27559;DHT22;15002;52.028;5.670;2023-03-31T05:12:36;13.90;99.90
27559;DHT22;15002;52.028;5.670;2023-03-31T05:15:03;13.90;99.90
27559;DHT22;15002;52.028;5.670;2023-03-31T05:17:33;13.60;99.90
27559;DHT22;15002;52.028;5.670;2023-03-31T05:19:59;13.70;99.90
27559;DHT22;15002;52.028;5.670;2023-03-31T05:22:26;13.70;99.90
27559;DHT22;15002;52.028;5.670;2023-03-31T05:24:52;13.70;99.90
27559;DHT22;15002;52.028;5.670;2023-03-31T05:27:18;13.60;99.90
27559;DHT22;15002;52.028;5.670;2023-03-31T05:29:45;13.70;99.90
27559;DHT22;15002;52.028;5.670;2023-03-31T05:32:11;13.70;99.90
27559;DHT22;15002;52.028;5.670;2023-03-31T05:34:37;13.80;99.90
27559;DHT22;15002;52.028;5.670;2023-03-31T05:37:02;13.70;99.90
27559;DHT22;15002;52.028;5.670;2023-03-31T05:39:28;13.60;99.90
27559;DHT22;15002;52.028;5.670;2023-03-31T05:41:58;13.60;99.90
27559;DHT22;15002;52.028;5.670;2023-03-31T05:44:24;13.60;99.90
27559;DHT22;15002;52.028;5.670;2023-03-31T05:46:52;13.70;99.90
27559;DHT22;15002;52.028;5.670;2023-03-31T05:49:18;13.80;99.90
27559;DHT22;15002;52.028;5.670;2023-03-31T05:51:43;13.80;99.90
27559;DHT22;15002;52.028;5.670;2023-03-31T05:54:10;13.70;99.90
27559;DHT22;15002;52.028;5.670;2023-03-31T05:56:35;13.60;99.90
27559;DHT22;15002;52.028;5.670;2023-03-31T05:59:01;13.70;99.90
27559;DHT22;15002;52.028;5.670;2023-03-31T06:01:27;13.70;99.90
27559;DHT22;15002;52.028;5.670;2023-03-31T06:03:54;13.80;99.90
27559;DHT22;15002;52.028;5.670;2023-03-31T06:06:21;13.80;99.90
27559;DHT22;15002;52.028;5.670;2023-03-31T06:08:47;13.70;99.90
27559;DHT22;15002;52.028;5.670;2023-03-31T06:11:15;13.90;99.90
27559;DHT22;15002;52.028;5.670;2023-03-31T06:13:43;13.80;99.90
27559;DHT22;15002;52.028;5.670;2023-03-31T06:16:11;13.90;99.90
27559;DHT22;15002;52.028;5.670;2023-03-31T06:18:37;13.70;99.90
27559;DHT22;15002;52.028;5.670;2023-03-31T06:21:04;13.90;99.90
27559;DHT22;15002;52.028;5.670;2023-03-31T06:23:31;13.80;99.90
27559;DHT22;15002;52.028;5.670;2023-03-31T06:26:01;13.70;99.90
27559;DHT22;15002;52.028;5.670;2023-03-31T06:28:28;13.80;99.90
27559;DHT22;15002;52.028;5.670;2023-03-31T06:31:07;13.70;99.90
27559;DHT22;15002;52.028;5.670;2023-03-31T06:33:33;13.80;99.90
27559;DHT22;15002;52.028;5.670;2023-03-31T06:35:59;13.80;99.90
27559;DHT22;15002;52.028;5.670;2023-03-31T06:38:28;13.80;99.90
27559;DHT22;15002;52.028;5.670;2023-03-31T06:40:54;13.80;99.90
27559;DHT22;15002;52.028;5.670;2023-03-31T06:43:20;13.80;99.90
27559;DHT22;15002;52.028;5.670;2023-03-31T06:45:46;13.90;99.90
27559;DHT22;15002;52.028;5.670;2023-03-31T06:48:13;13.90;99.90
27559;DHT22;15002;52.028;5.670;2023-03-31T06:50:39;14.00;99.90
27559;DHT22;15002;52.028;5.670;2023-03-31T06:53:07;14.10;99.90
27559;DHT22;15002;52.028;5.670;2023-03-31T06:55:32;13.90;99.90
27559;DHT22;15002;52.028;5.670;2023-03-31T06:57:59;13.90;99.90
27559;DHT22;15002;52.028;5.670;2023-03-31T07:00:25;14.00;99.90
27559;DHT22;15002;52.028;5.670;2023-03-31T07:02:52;14.00;99.90
27559;DHT22;15002;52.028;5.670;2023-03-31T07:05:18;14.00;99.90
27559;DHT22;15002;52.028;5.670;2023-03-31T07:07:44;14.00;99.90
27559;DHT22;15002;52.028;5.670;2023-03-31T07:10:10;14.00;99.90
27559;DHT22;15002;52.028;5.670;2023-03-31T07:12:36;13.90;99.90
27559;DHT22;15002;52.028;5.670;2023-03-31T07:15:03;14.00;99.90
27559;DHT22;15002;52.028;5.670;2023-03-31T07:17:29;14.00;99.90
27559;DHT22;15002;52.028;5.670;2023-03-31T07:19:54;13.90;99.90
27559;DHT22;15002;52.028;5.670;2023-03-31T07:22:20;14.10;99.90
27559;DHT22;15002;52.028;5.670;2023-03-31T07:24:45;14.10;99.90
27559;DHT22;15002;52.028;5.670;2023-03-31T07:27:11;14.10;99.90
27559;DHT22;15002;52.028;5.670;2023-03-31T07:29:37;14.10;99.90
27559;DHT22;15002;52.028;5.670;2023-03-31T07:32:02;14.10;99.90
27559;DHT22;15002;52.028;5.670;2023-03-31T07:34:28;14.10;99.90
27559;DHT22;15002;52.028;5.670;2023-03-31T07:36:54;14.10;99.90
27559;DHT22;15002;52.028;5.670;2023-03-31T07:39:20;14.10;99.90
27559;DHT22;15002;52.028;5.670;2023-03-31T07:41:46;14.00;99.90
27559;DHT22;15002;52.028;5.670;2023-03-31T07:44:11;14.20;99.90
27559;DHT22;15002;52.028;5.670;2023-03-31T07:46:38;14.00;99.90
27559;DHT22;15002;52.028;5.670;2023-03-31T07:49:04;14.00;99.90
27559;DHT22;15002;52.028;5.670;2023-03-31T07:51:32;14.00;99.90
27559;DHT22;15002;52.028;5.670;2023-03-31T07:53:58;13.80;99.90
27559;DHT22;15002;52.028;5.670;2023-03-31T07:56:24;13.90;99.90
27559;DHT22;15002;52.028;5.670;2023-03-31T07:58:50;13.80;99.90
27559;DHT22;15002;52.028;5.670;2023-03-31T08:01:20;13.90;99.90
27559;DHT22;15002;52.028;5.670;2023-03-31T08:03:46;13.80;99.90
27559;DHT22;15002;52.028;5.670;2023-03-31T08:06:20;13.60;99.90
27559;DHT22;15002;52.028;5.670;2023-03-31T08:08:47;13.60;99.90
27559;DHT22;15002;52.028;5.670;2023-03-31T08:11:12;13.70;99.90
27559;DHT22;15002;52.028;5.670;2023-03-31T08:13:38;13.70;99.90
27559;DHT22;15002;52.028;5.670;2023-03-31T08:16:04;13.70;99.90
27559;DHT22;15002;52.028;5.670;2023-03-31T08:18:30;13.70;99.90
27559;DHT22;15002;52.028;5.670;2023-03-31T08:20:55;13.90;99.90
27559;DHT22;15002;52.028;5.670;2023-03-31T08:23:21;13.80;99.90
27559;DHT22;15002;52.028;5.670;2023-03-31T08:25:47;13.90;99.90
27559;DHT22;15002;52.028;5.670;2023-03-31T08:28:12;13.80;99.90
27559;DHT22;15002;52.028;5.670;2023-03-31T08:30:42;13.80;99.90
27559;DHT22;15002;52.028;5.670;2023-03-31T08:33:08;13.70;99.90
27559;DHT22;15002;52.028;5.670;2023-03-31T08:35:37;13.90;99.90
27559;DHT22;15002;52.028;5.670;2023-03-31T08:38:03;13.90;99.90
27559;DHT22;15002;52.028;5.670;2023-03-31T08:40:30;14.00;99.90
27559;DHT22;15002;52.028;5.670;2023-03-31T08:43:05;14.00;99.90
27559;DHT22;15002;52.028;5.670;2023-03-31T08:45:44;14.10;99.90
27559;DHT22;15002;52.028;5.670;2023-03-31T08:50:50;14.20;99.90
27559;DHT22;15002;52.028;5.670;2023-03-31T08:53:37;14.20;99.90
27559;DHT22;15002;52.028;5.670;2023-03-31T08:56:07;14.40;99.90
27559;DHT22;15002;52.028;5.670;2023-03-31T08:58:42;14.60;99.90
27559;DHT22;15002;52.028;5.670;2023-03-31T09:09:34;14.80;99.90
27559;DHT22;15002;52.028;5.670;2023-03-31T09:12:20;14.80;99.90
27559;DHT22;15002;52.028;5.670;2023-03-31T09:14:56;14.70;99.90
27559;DHT22;15002;52.028;5.670;2023-03-31T09:17:42;14.80;99.90
27559;DHT22;15002;52.028;5.670;2023-03-31T09:20:19;14.80;99.90
27559;DHT22;15002;52.028;5.670;2023-03-31T09:23:08;14.90;99.90
27559;DHT22;15002;52.028;5.670;2023-03-31T09:25:38;14.90;99.90
27559;DHT22;15002;52.028;5.670;2023-03-31T09:28:14;15.20;99.90
27559;DHT22;15002;52.028;5.670;2023-03-31T09:30:43;15.20;99.90
27559;DHT22;15002;52.028;5.670;2023-03-31T09:35:47;15.20;99.90
27559;DHT22;15002;52.028;5.670;2023-03-31T09:38:14;15.50;99.90
27559;DHT22;15002;52.028;5.670;2023-03-31T09:40:41;15.40;99.90
27559;DHT22;15002;52.028;5.670;2023-03-31T09:43:25;15.50;99.90
27559;DHT22;15002;52.028;5.670;2023-03-31T09:45:52;15.60;99.90
27559;DHT22;15002;52.028;5.670;2023-03-31T09:48:25;15.50;99.90
27559;DHT22;15002;52.028;5.670;2023-03-31T09:51:04;15.60;99.90
27559;DHT22;15002;52.028;5.670;2023-03-31T09:53:53;15.50;99.90
27559;DHT22;15002;52.028;5.670;2023-03-31T09:59:31;15.50;99.90
27559;DHT22;15002;52.028;5.670;2023-03-31T10:02:00;15.50;99.90
27559;DHT22;15002;52.028;5.670;2023-03-31T10:04:31;15.60;99.90
27559;DHT22;15002;52.028;5.670;2023-03-31T10:06:58;15.60;99.90
27559;DHT22;15002;52.028;5.670;2023-03-31T10:09:27;15.60;99.90
27559;DHT22;15002;52.028;5.670;2023-03-31T10:12:04;15.50;99.90
27559;DHT22;15002;52.028;5.670;2023-03-31T10:14:44;15.20;99.90
27559;DHT22;15002;52.028;5.670;2023-03-31T10:17:14;15.10;99.90
27559;DHT22;15002;52.028;5.670;2023-03-31T10:22:26;15.30;99.90
27559;DHT22;15002;52.028;5.670;2023-03-31T10:24:52;15.30;99.90
27559;DHT22;15002;52.028;5.670;2023-03-31T10:27:26;15.30;99.90
27559;DHT22;15002;52.028;5.670;2023-03-31T10:29:54;15.40;99.90
27559;DHT22;15002;52.028;5.670;2023-03-31T10:32:31;15.50;99.90
27559;DHT22;15002;52.028;5.670;2023-03-31T10:35:30;15.70;99.90
27559;DHT22;15002;52.028;5.670;2023-03-31T10:38:03;15.70;99.90
27559;DHT22;15002;52.028;5.670;2023-03-31T10:40:32;15.90;99.90
27559;DHT22;15002;52.028;5.670;2023-03-31T10:43:14;16.00;99.90
27559;DHT22;15002;52.028;5.670;2023-03-31T10:45:50;16.00;99.90
27559;DHT22;15002;52.028;5.670;2023-03-31T10:48:30;16.20;99.90
27559;DHT22;15002;52.028;5.670;2023-03-31T10:51:20;16.40;99.90
27559;DHT22;15002;52.028;5.670;2023-03-31T10:53:48;16.40;99.90
27559;DHT22;15002;52.028;5.670;2023-03-31T11:15:49;16.40;99.90
27559;DHT22;15002;52.028;5.670;2023-03-31T11:18:23;16.40;99.90
27559;DHT22;15002;52.028;5.670;2023-03-31T11:23:43;16.40;99.90
27559;DHT22;15002;52.028;5.670;2023-03-31T11:26:16;16.30;99.90
27559;DHT22;15002;52.028;5.670;2023-03-31T11:31:32;16.70;99.90
27559;DHT22;15002;52.028;5.670;2023-03-31T11:36:44;16.70;99.90
27559;DHT22;15002;52.028;5.670;2023-03-31T11:42:02;16.60;99.90
27559;DHT22;15002;52.028;5.670;2023-03-31T11:44:39;16.50;99.90
27559;DHT22;15002;52.028;5.670;2023-03-31T11:47:09;16.70;99.90
27559;DHT22;15002;52.028;5.670;2023-03-31T11:50:29;16.80;99.90
27559;DHT22;15002;52.028;5.670;2023-03-31T11:53:00;16.60;99.90
27559;DHT22;15002;52.028;5.670;2023-03-31T11:55:28;16.60;99.90
27559;DHT22;15002;52.028;5.670;2023-03-31T12:00:26;16.40;99.90
27559;DHT22;15002;52.028;5.670;2023-03-31T12:05:44;16.30;99.90
27559;DHT22;15002;52.028;5.670;2023-03-31T12:08:28;16.40;99.90
27559;DHT22;15002;52.028;5.670;2023-03-31T12:11:01;16.20;99.90
27559;DHT22;15002;52.028;5.670;2023-03-31T12:18:55;16.00;99.90
27559;DHT22;15002;52.028;5.670;2023-03-31T12:21:22;16.10;99.90
27559;DHT22;15002;52.028;5.670;2023-03-31T12:23:49;16.10;99.90
27559;DHT22;15002;52.028;5.670;2023-03-31T12:26:37;16.00;99.90
27559;DHT22;15002;52.028;5.670;2023-03-31T12:29:21;15.80;99.90
27559;DHT22;15002;52.028;5.670;2023-03-31T12:31:53;15.80;99.90
27559;DHT22;15002;52.028;5.670;2023-03-31T12:34:22;15.70;99.90
27559;DHT22;15002;52.028;5.670;2023-03-31T12:39:38;15.70;99.90
27559;DHT22;15002;52.028;5.670;2023-03-31T12:55:46;15.40;99.90
27559;DHT22;15002;52.028;5.670;2023-03-31T13:01:18;15.00;99.90
27559;DHT22;15002;52.028;5.670;2023-03-31T13:09:02;15.40;99.90
27559;DHT22;15002;52.028;5.670;2023-03-31T13:14:04;15.50;99.90
27559;DHT22;15002;52.028;5.670;2023-03-31T13:16:31;15.60;99.90
27559;DHT22;15002;52.028;5.670;2023-03-31T13:18:57;15.70;99.90
27559;DHT22;15002;52.028;5.670;2023-03-31T13:21:23;15.80;99.90
27559;DHT22;15002;52.028;5.670;2023-03-31T13:23:50;15.60;99.90
27559;DHT22;15002;52.028;5.670;2023-03-31T13:26:39;15.80;99.90
27559;DHT22;15002;52.028;5.670;2023-03-31T13:35:01;15.90;99.90
27559;DHT22;15002;52.028;5.670;2023-03-31T13:40:29;15.90;99.90
27559;DHT22;15002;52.028;5.670;2023-03-31T13:51:22;15.60;99.90
27559;DHT22;15002;52.028;5.670;2023-03-31T14:05:46;15.70;99.90
27559;DHT22;15002;52.028;5.670;2023-03-31T14:10:40;15.60;99.90
27559;DHT22;15002;52.028;5.670;2023-03-31T14:13:15;15.60;99.90
27559;DHT22;15002;52.028;5.670;2023-03-31T14:15:46;15.50;99.90
27559;DHT22;15002;52.028;5.670;2023-03-31T14:18:14;15.40;99.90
27559;DHT22;15002;52.028;5.670;2023-03-31T14:21:13;15.50;99.90
27559;DHT22;15002;52.028;5.670;2023-03-31T14:26:53;15.40;99.90
27559;DHT22;15002;52.028;5.670;2023-03-31T14:35:16;15.10;99.90
27559;DHT22;15002;52.028;5.670;2023-03-31T14:37:48;15.10;99.90
27559;DHT22;15002;52.028;5.670;2023-03-31T14:40:16;14.80;99.90
27559;DHT22;15002;52.028;5.670;2023-03-31T14:42:42;14.90;99.90
27559;DHT22;15002;52.028;5.670;2023-03-31T14:45:25;14.90;99.90
27559;DHT22;15002;52.028;5.670;2023-03-31T14:47:58;15.00;99.90
27559;DHT22;15002;52.028;5.670;2023-03-31T14:50:33;15.00;99.90
27559;DHT22;15002;52.028;5.670;2023-03-31T14:52:59;15.20;99.90
27559;DHT22;15002;52.028;5.670;2023-03-31T14:55:28;15.20;99.90
27559;DHT22;15002;52.028;5.670;2023-03-31T14:57:57;15.20;99.90
27559;DHT22;15002;52.028;5.670;2023-03-31T15:00:30;15.30;99.90
27559;DHT22;15002;52.028;5.670;2023-03-31T15:02:57;15.20;99.90
27559;DHT22;15002;52.028;5.670;2023-03-31T15:05:32;15.20;99.90
27559;DHT22;15002;52.028;5.670;2023-03-31T15:08:01;15.30;99.90
27559;DHT22;15002;52.028;5.670;2023-03-31T15:10:36;15.30;99.90
27559;DHT22;15002;52.028;5.670;2023-03-31T15:13:19;15.30;99.90
27559;DHT22;15002;52.028;5.670;2023-03-31T15:15:46;15.20;99.90
27559;DHT22;15002;52.028;5.670;2023-03-31T15:18:14;15.00;99.90
27559;DHT22;15002;52.028;5.670;2023-03-31T15:20:42;15.10;99.90
27559;DHT22;15002;52.028;5.670;2023-03-31T15:23:22;14.90;99.90
27559;DHT22;15002;52.028;5.670;2023-03-31T15:26:05;14.90;99.90
27559;DHT22;15002;52.028;5.670;2023-03-31T15:28:47;14.50;99.90
27559;DHT22;15002;52.028;5.670;2023-03-31T15:31:15;14.50;99.90
27559;DHT22;15002;52.028;5.670;2023-03-31T15:33:41;14.40;99.90
27559;DHT22;15002;52.028;5.670;2023-03-31T15:36:09;14.60;99.90
27559;DHT22;15002;52.028;5.670;2023-03-31T15:38:35;14.70;99.90
27559;DHT22;15002;52.028;5.670;2023-03-31T15:41:01;14.90;99.90
27559;DHT22;15002;52.028;5.670;2023-03-31T15:45:55;15.00;99.90
27559;DHT22;15002;52.028;5.670;2023-03-31T15:48:49;15.00;99.90
27559;DHT22;15002;52.028;5.670;2023-03-31T15:51:17;15.10;99.90
27559;DHT22;15002;52.028;5.670;2023-03-31T15:53:52;14.90;99.90
27559;DHT22;15002;52.028;5.670;2023-03-31T15:56:33;14.90;99.90
27559;DHT22;15002;52.028;5.670;2023-03-31T15:59:01;14.90;99.90
27559;DHT22;15002;52.028;5.670;2023-03-31T16:01:34;14.80;99.90
27559;DHT22;15002;52.028;5.670;2023-03-31T16:04:07;14.90;99.90
27559;DHT22;15002;52.028;5.670;2023-03-31T16:09:07;14.80;99.90
27559;DHT22;15002;52.028;5.670;2023-03-31T16:11:40;14.90;99.90
27559;DHT22;15002;52.028;5.670;2023-03-31T16:16:39;14.80;99.90
27559;DHT22;15002;52.028;5.670;2023-03-31T16:19:09;14.90;99.90
27559;DHT22;15002;52.028;5.670;2023-03-31T16:21:40;14.80;99.90
27559;DHT22;15002;52.028;5.670;2023-03-31T16:24:07;14.80;99.90
27559;DHT22;15002;52.028;5.670;2023-03-31T16:26:33;14.90;99.90
27559;DHT22;15002;52.028;5.670;2023-03-31T16:29:00;14.80;99.90
27559;DHT22;15002;52.028;5.670;2023-03-31T16:31:31;14.80;99.90
27559;DHT22;15002;52.028;5.670;2023-03-31T16:33:59;14.60;99.90
27559;DHT22;15002;52.028;5.670;2023-03-31T16:36:25;14.60;99.90
27559;DHT22;15002;52.028;5.670;2023-03-31T16:38:52;14.50;99.90
27559;DHT22;15002;52.028;5.670;2023-03-31T16:41:22;14.40;99.90
27559;DHT22;15002;52.028;5.670;2023-03-31T16:43:48;14.40;99.90
27559;DHT22;15002;52.028;5.670;2023-03-31T16:46:17;14.40;99.90
27559;DHT22;15002;52.028;5.670;2023-03-31T16:48:43;14.50;99.90
27559;DHT22;15002;52.028;5.670;2023-03-31T16:51:09;14.60;99.90
27559;DHT22;15002;52.028;5.670;2023-03-31T16:53:35;14.50;99.90
27559;DHT22;15002;52.028;5.670;2023-03-31T16:56:03;14.50;99.90
27559;DHT22;15002;52.028;5.670;2023-03-31T16:58:29;14.30;99.90
27559;DHT22;15002;52.028;5.670;2023-03-31T17:00:56;14.30;99.90
27559;DHT22;15002;52.028;5.670;2023-03-31T17:03:22;14.40;99.90
27559;DHT22;15002;52.028;5.670;2023-03-31T17:05:50;14.30;99.90
27559;DHT22;15002;52.028;5.670;2023-03-31T17:08:18;14.20;99.90
27559;DHT22;15002;52.028;5.670;2023-03-31T17:11:02;14.30;99.90
27559;DHT22;15002;52.028;5.670;2023-03-31T17:13:30;14.30;99.90
27559;DHT22;15002;52.028;5.670;2023-03-31T17:15:57;14.30;99.90
27559;DHT22;15002;52.028;5.670;2023-03-31T17:18:24;14.20;99.90
27559;DHT22;15002;52.028;5.670;2023-03-31T17:20:50;14.20;99.90
27559;DHT22;15002;52.028;5.670;2023-03-31T17:23:18;14.20;99.90
27559;DHT22;15002;52.028;5.670;2023-03-31T17:25:52;14.10;99.90
27559;DHT22;15002;52.028;5.670;2023-03-31T17:28:17;14.10;99.90
27559;DHT22;15002;52.028;5.670;2023-03-31T17:30:44;14.00;99.90
27559;DHT22;15002;52.028;5.670;2023-03-31T17:33:13;14.10;99.90
27559;DHT22;15002;52.028;5.670;2023-03-31T17:35:40;14.00;99.90
27559;DHT22;15002;52.028;5.670;2023-03-31T17:38:05;13.90;99.90
27559;DHT22;15002;52.028;5.670;2023-03-31T17:40:33;13.90;99.90
27559;DHT22;15002;52.028;5.670;2023-03-31T17:43:00;13.80;99.90
27559;DHT22;15002;52.028;5.670;2023-03-31T17:45:27;13.80;99.90
27559;DHT22;15002;52.028;5.670;2023-03-31T17:47:54;13.80;99.90
27559;DHT22;15002;52.028;5.670;2023-03-31T17:50:20;13.80;99.90
27559;DHT22;15002;52.028;5.670;2023-03-31T17:52:46;13.90;99.90
27559;DHT22;15002;52.028;5.670;2023-03-31T17:55:11;14.00;99.90
27559;DHT22;15002;52.028;5.670;2023-03-31T17:57:39;14.00;99.90
27559;DHT22;15002;52.028;5.670;2023-03-31T18:00:06;13.90;99.90
27559;DHT22;15002;52.028;5.670;2023-03-31T18:02:41;13.80;99.90
27559;DHT22;15002;52.028;5.670;2023-03-31T18:05:07;13.90;99.90
27559;DHT22;15002;52.028;5.670;2023-03-31T18:07:33;13.90;99.90
27559;DHT22;15002;52.028;5.670;2023-03-31T18:10:00;13.90;99.90
27559;DHT22;15002;52.028;5.670;2023-03-31T18:12:26;13.90;99.90
27559;DHT22;15002;52.028;5.670;2023-03-31T18:14:53;13.80;99.90
27559;DHT22;15002;52.028;5.670;2023-03-31T18:17:20;13.80;99.90
27559;DHT22;15002;52.028;5.670;2023-03-31T18:19:45;13.80;99.90
27559;DHT22;15002;52.028;5.670;2023-03-31T18:22:11;13.80;99.90
27559;DHT22;15002;52.028;5.670;2023-03-31T18:24:37;13.80;99.90
27559;DHT22;15002;52.028;5.670;2023-03-31T18:27:05;13.80;99.90
27559;DHT22;15002;52.028;5.670;2023-03-31T18:29:31;13.80;99.90
27559;DHT22;15002;52.028;5.670;2023-03-31T18:31:57;13.70;99.90
27559;DHT22;15002;52.028;5.670;2023-03-31T18:34:23;13.70;99.90
27559;DHT22;15002;52.028;5.670;2023-03-31T18:36:49;13.80;99.90
27559;DHT22;15002;52.028;5.670;2023-03-31T18:39:15;13.80;99.90
27559;DHT22;15002;52.028;5.670;2023-03-31T18:41:44;13.60;99.90
27559;DHT22;15002;52.028;5.670;2023-03-31T18:44:10;13.80;99.90